createdAt,value
2019-03-26T00:02:19.201Z,101535.33
2019-03-26T00:04:48.429Z,101536.96
2019-03-26T00:07:17.627Z,101541.26
2019-03-26T00:09:46.855Z,101540.75
2019-03-26T00:12:16.076Z,101547.05
2019-03-26T00:14:45.278Z,101541.77
2019-03-26T00:17:14.587Z,101558.25
2019-03-26T00:19:43.781Z,101550.84
2019-03-26T00:22:12.983Z,101560.89
2019-03-26T00:24:42.211Z,101553.95
2019-03-26T00:27:11.434Z,101557.44
2019-03-26T00:29:40.643Z,101558.25
2019-03-26T00:32:09.879Z,101558.59
2019-03-26T00:34:39.072Z,101559.09
2019-03-26T00:37:08.282Z,101558.75
2019-03-26T00:39:37.536Z,101556.93
2019-03-26T00:42:07.043Z,101559.09
2019-03-26T00:44:36.244Z,101567.48
2019-03-26T00:47:05.553Z,101570.45
2019-03-26T00:49:34.751Z,101573.59
2019-03-26T00:52:03.968Z,101576.23
2019-03-26T00:54:33.194Z,101577.69
2019-03-26T00:57:02.510Z,101578.32
2019-03-26T00:59:31.730Z,101570.23
2019-03-26T01:02:00.958Z,101572.41
2019-03-26T01:04:33.059Z,101583.94
2019-03-26T01:07:01.094Z,101579.16
2019-03-26T01:09:30.338Z,101586.72
2019-03-26T01:11:59.539Z,101591.66
2019-03-26T01:14:28.758Z,101601.41
2019-03-26T01:16:57.981Z,101596.14
2019-03-26T01:19:27.191Z,101591.50
2019-03-26T01:21:56.509Z,101596.78
2019-03-26T01:24:25.778Z,101593.97
2019-03-26T01:26:54.975Z,101601.89
2019-03-26T01:29:24.185Z,101598.44
2019-03-26T01:31:53.408Z,101594.48
2019-03-26T01:34:22.630Z,101593.33
2019-03-26T01:36:51.824Z,101594.30
2019-03-26T01:39:21.046Z,101604.03
2019-03-26T01:41:50.284Z,101612.92
2019-03-26T01:44:19.517Z,101608.80
2019-03-26T01:46:48.802Z,101602.87
2019-03-26T01:49:18.002Z,101608.62
2019-03-26T01:51:47.225Z,101609.11
2019-03-26T01:54:16.422Z,101611.58
2019-03-26T01:56:45.656Z,101605.50
2019-03-26T01:59:14.897Z,101608.78
2019-03-26T02:01:44.096Z,101605.64
2019-03-26T02:04:13.318Z,101603.83
2019-03-26T02:06:42.537Z,101601.02
2019-03-26T02:09:11.770Z,101603.31
2019-03-26T02:11:41.095Z,101608.93
2019-03-26T02:14:10.291Z,101611.39
2019-03-26T02:16:39.544Z,101616.67
2019-03-26T02:19:08.740Z,101612.52
2019-03-26T02:21:37.940Z,101614.66
2019-03-26T02:24:07.249Z,101612.83
2019-03-26T02:26:36.449Z,101617.45
2019-03-26T02:29:05.652Z,101614.45
2019-03-26T02:31:34.892Z,101617.25
2019-03-26T02:34:04.087Z,101608.52
2019-03-26T02:36:33.276Z,101617.09
2019-03-26T02:39:02.512Z,101625.83
2019-03-26T02:41:31.707Z,101616.41
2019-03-26T02:44:00.908Z,101627.96
2019-03-26T02:46:30.133Z,101615.09
2019-03-26T02:48:59.357Z,101618.23
2019-03-26T02:51:28.568Z,101612.00
2019-03-26T02:53:57.760Z,101607.52
2019-03-26T02:56:27.000Z,101616.42
2019-03-26T02:58:56.204Z,101614.45
2019-03-26T03:01:25.453Z,101615.77
2019-03-26T03:03:54.643Z,101619.22
2019-03-26T03:06:23.870Z,101621.23
2019-03-26T03:08:53.071Z,101621.06
2019-03-26T03:11:22.282Z,101620.25
2019-03-26T03:13:51.584Z,101618.09
2019-03-26T03:16:20.885Z,101616.13
2019-03-26T03:18:50.114Z,101624.33
2019-03-26T03:21:19.336Z,101615.59
2019-03-26T03:23:48.543Z,101617.74
2019-03-26T03:26:17.831Z,101619.59
2019-03-26T03:28:47.048Z,101617.95
2019-03-26T03:31:16.246Z,101623.05
2019-03-26T03:33:45.457Z,101630.15
2019-03-26T03:36:14.658Z,101635.08
2019-03-26T03:38:43.881Z,101634.90
2019-03-26T03:41:13.100Z,101634.06
2019-03-26T03:43:42.367Z,101635.38
2019-03-26T03:46:11.579Z,101633.08
2019-03-26T03:48:40.961Z,101640.16
2019-03-26T03:51:11.754Z,101633.89
2019-03-26T03:53:41.026Z,101633.23
2019-03-26T03:56:13.347Z,101639.14
2019-03-26T03:58:44.357Z,101645.24
2019-03-26T04:01:13.574Z,101639.97
2019-03-26T04:03:42.792Z,101638.96
2019-03-26T04:06:12.027Z,101636.14
2019-03-26T04:08:41.238Z,101635.99
2019-03-26T04:11:10.441Z,101625.59
2019-03-26T04:13:39.653Z,101632.08
2019-03-26T04:16:08.898Z,101626.30
2019-03-26T04:18:38.118Z,101626.30
2019-03-26T04:21:07.351Z,101634.86
2019-03-26T04:23:36.562Z,101637.37
2019-03-26T04:26:05.761Z,101642.14
2019-03-26T04:28:34.981Z,101637.03
2019-03-26T04:31:04.194Z,101636.69
2019-03-26T04:33:33.403Z,101642.10
2019-03-26T04:36:02.628Z,101634.83
2019-03-26T04:38:31.916Z,101640.94
2019-03-26T04:41:01.146Z,101639.14
2019-03-26T04:43:30.345Z,101638.33
2019-03-26T04:45:59.541Z,101633.05
2019-03-26T04:48:28.781Z,101627.77
2019-03-26T04:50:58.057Z,101630.05
2019-03-26T04:53:27.341Z,101626.72
2019-03-26T04:55:56.636Z,101638.22
2019-03-26T04:58:25.844Z,101636.53
2019-03-26T05:00:55.150Z,101640.83
2019-03-26T05:03:24.365Z,101639.30
2019-03-26T05:05:53.563Z,101644.39
2019-03-26T05:08:22.784Z,101639.78
2019-03-26T05:10:51.988Z,101643.92
2019-03-26T05:13:21.211Z,101643.10
2019-03-26T05:15:50.460Z,101637.85
2019-03-26T05:18:19.652Z,101649.42
2019-03-26T05:20:48.872Z,101650.92
2019-03-26T05:23:18.366Z,101642.38
2019-03-26T05:25:47.556Z,101648.13
2019-03-26T05:28:16.849Z,101648.97
2019-03-26T05:30:46.079Z,101648.47
2019-03-26T05:33:15.270Z,101638.24
2019-03-26T05:35:44.466Z,101645.64
2019-03-26T05:38:13.766Z,101644.86
2019-03-26T05:40:42.995Z,101653.55
2019-03-26T05:43:12.258Z,101649.12
2019-03-26T05:45:41.456Z,101647.15
2019-03-26T05:48:10.677Z,101648.30
2019-03-26T05:50:39.903Z,101655.56
2019-03-26T05:53:09.104Z,101651.09
2019-03-26T05:55:38.317Z,101653.11
2019-03-26T05:58:07.639Z,101653.42
2019-03-26T06:00:36.843Z,101659.05
2019-03-26T06:03:06.128Z,101659.22
2019-03-26T06:05:35.348Z,101655.13
2019-03-26T06:08:04.548Z,101652.83
2019-03-26T06:10:33.757Z,101654.33
2019-03-26T06:13:02.981Z,101654.64
2019-03-26T06:15:32.191Z,101652.52
2019-03-26T06:18:01.389Z,101650.55
2019-03-26T06:20:30.622Z,101648.25
2019-03-26T06:22:59.820Z,101657.82
2019-03-26T06:25:29.035Z,101652.22
2019-03-26T06:27:58.251Z,101650.43
2019-03-26T06:30:27.464Z,101649.28
2019-03-26T06:32:56.674Z,101649.78
2019-03-26T06:35:25.897Z,101638.76
2019-03-26T06:37:55.094Z,101647.70
2019-03-26T06:40:24.339Z,101647.89
2019-03-26T06:42:53.892Z,101652.86
2019-03-26T06:45:23.169Z,101656.16
2019-03-26T06:47:52.356Z,101648.25
2019-03-26T06:50:21.760Z,101641.83
2019-03-26T06:52:50.980Z,101633.30
2019-03-26T06:55:20.425Z,101638.13
2019-03-26T06:57:49.666Z,101636.80
2019-03-26T07:00:29.538Z,101635.16
2019-03-26T07:03:00.087Z,101643.27
2019-03-26T07:05:29.299Z,101646.20
2019-03-26T07:07:58.605Z,101646.89
2019-03-26T07:10:28.697Z,101649.03
2019-03-26T07:12:58.311Z,101652.18
2019-03-26T07:15:27.543Z,101648.69
2019-03-26T07:17:57.169Z,101655.47
2019-03-26T07:20:26.445Z,101660.92
2019-03-26T07:22:55.679Z,101663.73
2019-03-26T07:25:24.954Z,101661.42
2019-03-26T07:27:54.235Z,101663.56
2019-03-26T07:30:40.936Z,101671.16
2019-03-26T07:33:10.908Z,101662.73
2019-03-26T07:35:40.280Z,101654.47
2019-03-26T07:38:09.586Z,101654.13
2019-03-26T07:40:38.785Z,101665.05
2019-03-26T07:43:08.143Z,101668.03
2019-03-26T07:45:37.648Z,101678.25
2019-03-26T07:48:06.928Z,101681.86
2019-03-26T07:50:36.230Z,101677.05
2019-03-26T07:53:05.531Z,101681.39
2019-03-26T07:55:34.733Z,101684.22
2019-03-26T07:58:03.952Z,101687.34
2019-03-26T08:00:37.466Z,101688.33
2019-03-26T08:03:07.673Z,101695.95
2019-03-26T08:05:37.204Z,101690.97
2019-03-26T08:08:06.488Z,101687.34
2019-03-26T08:10:35.704Z,101699.91
2019-03-26T08:13:05.001Z,101688.82
2019-03-26T08:15:34.225Z,101692.14
2019-03-26T08:18:03.466Z,101696.09
2019-03-26T08:20:32.666Z,101694.27
2019-03-26T08:23:01.873Z,101702.69
2019-03-26T08:25:33.710Z,101692.45
2019-03-26T08:28:04.903Z,101701.88
2019-03-26T08:30:32.944Z,101694.44
2019-03-26T08:33:02.156Z,101701.52
2019-03-26T08:35:31.392Z,101697.55
2019-03-26T08:38:11.654Z,101695.77
2019-03-26T08:40:31.498Z,101692.45
2019-03-26T08:43:00.714Z,101685.38
2019-03-26T08:45:30.043Z,101684.53
2019-03-26T08:47:59.247Z,101703.02
2019-03-26T08:50:28.438Z,101696.08
2019-03-26T08:52:57.695Z,101705.13
2019-03-26T08:55:26.879Z,101677.77
2019-03-26T08:57:56.067Z,101681.77
2019-03-26T09:00:25.290Z,101671.34
2019-03-26T09:02:54.510Z,101661.56
2019-03-26T09:05:23.714Z,101661.08
2019-03-26T09:07:53.003Z,101659.11
2019-03-26T09:10:22.304Z,101667.47
2019-03-26T09:12:51.500Z,101658.66
2019-03-26T09:15:20.718Z,101679.38
2019-03-26T09:17:49.942Z,101673.27
2019-03-26T09:20:19.168Z,101678.89
2019-03-26T09:22:48.368Z,101669.45
2019-03-26T09:25:17.583Z,101669.55
2019-03-26T09:27:46.848Z,101676.44
2019-03-26T09:30:16.528Z,101669.56
2019-03-26T09:32:45.734Z,101664.75
2019-03-26T09:35:15.946Z,101653.95
2019-03-26T09:37:45.168Z,101649.02
2019-03-26T09:40:14.757Z,101662.19
2019-03-26T09:42:43.983Z,101649.69
2019-03-26T09:45:13.363Z,101652.41
2019-03-26T09:47:42.557Z,101635.91
2019-03-26T09:50:12.812Z,101639.48
2019-03-26T09:52:42.115Z,101631.14
2019-03-26T09:55:11.468Z,101621.71
2019-03-26T09:57:40.687Z,101620.36
2019-03-26T10:00:10.746Z,101634.09
2019-03-26T10:02:42.751Z,101655.48
2019-03-26T10:05:11.321Z,101634.45
2019-03-26T10:07:40.618Z,101626.84
2019-03-26T10:10:11.848Z,101617.48
2019-03-26T10:12:41.044Z,101636.20
2019-03-26T10:15:10.956Z,101630.01
2019-03-26T10:17:40.471Z,101626.63
2019-03-26T10:20:10.034Z,101633.91
2019-03-26T10:22:39.231Z,101618.73
2019-03-26T10:25:11.249Z,101628.45
2019-03-26T10:27:41.071Z,101631.82
2019-03-26T10:30:11.513Z,101608.78
2019-03-26T10:32:40.737Z,101611.78
2019-03-26T10:35:10.239Z,101632.05
2019-03-26T10:37:39.447Z,101603.63
2019-03-26T10:40:09.963Z,101612.48
2019-03-26T10:42:39.194Z,101619.42
2019-03-26T10:45:08.666Z,101630.42
2019-03-26T10:47:37.871Z,101615.43
2019-03-26T10:50:07.274Z,101622.83
2019-03-26T10:52:36.478Z,101616.11
2019-03-26T10:55:06.263Z,101603.77
2019-03-26T10:57:35.492Z,101613.82
2019-03-26T11:00:06.103Z,101615.88
2019-03-26T11:02:35.415Z,101618.50
2019-03-26T11:05:05.022Z,101614.27
2019-03-26T11:07:34.226Z,101610.17
2019-03-26T11:10:03.973Z,101612.42
2019-03-26T11:12:33.186Z,101615.38
2019-03-26T11:15:02.495Z,101616.53
2019-03-26T11:17:31.985Z,101610.70
2019-03-26T11:20:01.192Z,101606.69
2019-03-26T11:22:30.805Z,101615.19
2019-03-26T11:25:00.026Z,101614.13
2019-03-26T11:27:29.226Z,101615.78
2019-03-26T11:29:58.422Z,101616.93
2019-03-26T11:32:27.646Z,101611.81
2019-03-26T11:34:56.858Z,101628.61
2019-03-26T11:37:26.075Z,101628.86
2019-03-26T11:39:55.275Z,101618.19
2019-03-26T11:42:24.510Z,101616.15
2019-03-26T11:44:54.005Z,101599.50
2019-03-26T11:47:23.231Z,101635.02
2019-03-26T11:49:52.458Z,101622.04
2019-03-26T11:52:21.656Z,101638.36
2019-03-26T11:54:50.846Z,101621.44
2019-03-26T11:57:20.084Z,101612.13
2019-03-26T11:59:49.578Z,101603.63
2019-03-26T12:02:18.992Z,101613.77
2019-03-26T12:04:48.180Z,101613.38
2019-03-26T12:07:17.409Z,101616.31
2019-03-26T12:09:47.035Z,101611.23
2019-03-26T12:12:16.300Z,101603.98
2019-03-26T12:14:45.478Z,101610.63
2019-03-26T12:17:15.147Z,101606.48
2019-03-26T12:19:44.473Z,101600.75
2019-03-26T12:22:13.699Z,101606.56
2019-03-26T12:24:42.903Z,101611.84
2019-03-26T12:27:12.169Z,101608.47
2019-03-26T12:29:41.327Z,101605.00
2019-03-26T12:32:10.535Z,101614.82
2019-03-26T12:34:39.742Z,101606.92
2019-03-26T12:37:09.031Z,101609.94
2019-03-26T12:39:38.237Z,101610.48
2019-03-26T12:42:07.464Z,101613.63
2019-03-26T12:44:36.663Z,101605.87
2019-03-26T12:47:05.862Z,101609.16
2019-03-26T12:49:35.090Z,101611.49
2019-03-26T12:52:04.359Z,101624.20
2019-03-26T12:54:33.554Z,101623.55
2019-03-26T12:57:02.768Z,101622.39
2019-03-26T12:59:31.989Z,101620.55
2019-03-26T13:02:01.212Z,101621.16
2019-03-26T13:04:30.404Z,101616.36
2019-03-26T13:06:59.624Z,101615.08
2019-03-26T13:09:28.832Z,101613.22
2019-03-26T13:11:58.057Z,101615.39
2019-03-26T13:14:27.256Z,101626.95
2019-03-26T13:16:56.453Z,101614.42
2019-03-26T13:19:25.755Z,101622.57
2019-03-26T13:21:54.959Z,101614.05
2019-03-26T13:24:24.159Z,101633.09
2019-03-26T13:26:53.388Z,101627.16
2019-03-26T13:29:23.189Z,101627.03
2019-03-26T13:31:52.388Z,101628.48
2019-03-26T13:34:21.603Z,101622.02
2019-03-26T13:36:50.816Z,101626.50
2019-03-26T13:39:20.098Z,101623.86
2019-03-26T13:41:49.321Z,101621.36
2019-03-26T13:44:18.791Z,101618.73
2019-03-26T13:46:48.021Z,101614.94
2019-03-26T13:49:17.231Z,101623.52
2019-03-26T13:51:46.743Z,101621.84
2019-03-26T13:54:15.936Z,101620.53
2019-03-26T13:56:45.133Z,101626.67
2019-03-26T13:59:14.357Z,101617.42
2019-03-26T14:01:43.577Z,101610.14
2019-03-26T14:04:12.783Z,101610.45
2019-03-26T14:06:42.022Z,101613.91
2019-03-26T14:09:11.295Z,101620.84
2019-03-26T14:11:40.493Z,101615.56
2019-03-26T14:14:09.719Z,101624.66
2019-03-26T14:16:38.922Z,101622.02
2019-03-26T14:19:08.247Z,101626.95
2019-03-26T14:21:37.473Z,101632.92
2019-03-26T14:24:06.701Z,101639.20
2019-03-26T14:26:35.897Z,101636.21
2019-03-26T14:29:05.200Z,101634.08
2019-03-26T14:31:34.429Z,101631.25
2019-03-26T14:34:03.710Z,101631.24
2019-03-26T14:36:32.988Z,101616.69
2019-03-26T14:39:04.468Z,101619.45
2019-03-26T14:41:33.686Z,101616.80
2019-03-26T14:44:02.947Z,101620.07
2019-03-26T14:46:32.187Z,101617.90
2019-03-26T14:49:01.681Z,101619.61
2019-03-26T14:51:30.876Z,101615.63
2019-03-26T14:54:00.097Z,101628.80
2019-03-26T14:56:29.326Z,101619.16
2019-03-26T14:58:58.765Z,101624.45
2019-03-26T15:01:27.975Z,101619.48
2019-03-26T15:03:57.519Z,101615.59
2019-03-26T15:07:24.478Z,101626.53
2019-03-26T15:09:53.656Z,101626.20
2019-03-26T15:12:22.884Z,101621.58
2019-03-26T15:14:52.088Z,101620.41
2019-03-26T15:17:21.283Z,101631.97
2019-03-26T15:19:50.497Z,101627.05
2019-03-26T15:22:19.714Z,101624.28
2019-03-26T15:24:49.246Z,101624.95
2019-03-26T15:27:18.517Z,101626.30
2019-03-26T15:29:47.661Z,101622.19
2019-03-26T15:32:16.905Z,101628.77
2019-03-26T15:34:46.108Z,101626.31
2019-03-26T15:37:15.323Z,101628.31
2019-03-26T15:39:44.511Z,101633.58
2019-03-26T15:42:13.727Z,101629.71
2019-03-26T15:44:42.933Z,101634.20
2019-03-26T15:47:12.163Z,101632.36
2019-03-26T15:49:41.375Z,101633.02
2019-03-26T15:52:10.567Z,101630.39
2019-03-26T15:54:40.664Z,101633.23
2019-03-26T15:57:09.858Z,101638.33
2019-03-26T15:59:39.062Z,101637.70
2019-03-26T16:02:08.370Z,101641.47
2019-03-26T16:04:37.571Z,101641.29
2019-03-26T16:07:06.812Z,101635.84
2019-03-26T16:09:36.067Z,101639.84
2019-03-26T16:12:05.354Z,101639.84
2019-03-26T16:14:36.956Z,101641.20
2019-03-26T16:17:06.188Z,101639.89
2019-03-26T16:19:36.685Z,101643.39
2019-03-26T16:22:05.981Z,101644.53
2019-03-26T16:24:35.211Z,101636.61
2019-03-26T16:27:04.500Z,101636.12
2019-03-26T16:29:34.038Z,101642.91
2019-03-26T16:32:03.273Z,101639.66
2019-03-26T16:34:33.443Z,101640.81
2019-03-26T16:37:02.977Z,101643.13
2019-03-26T16:39:32.903Z,101642.60
2019-03-26T16:42:02.189Z,101645.23
2019-03-26T16:44:33.045Z,101636.80
2019-03-26T16:47:03.609Z,101646.87
2019-03-26T16:49:33.166Z,101638.62
2019-03-26T16:52:07.290Z,101647.06
2019-03-26T16:54:36.599Z,101640.80
2019-03-26T16:57:16.477Z,101639.49
2019-03-26T16:59:45.732Z,101640.98
2019-03-26T17:02:14.925Z,101636.84
2019-03-26T17:04:46.716Z,101649.41
2019-03-26T17:07:15.139Z,101636.34
2019-03-26T17:09:44.439Z,101636.84
2019-03-26T17:12:13.947Z,101645.29
2019-03-26T17:14:46.164Z,101639.31
2019-03-26T17:17:16.047Z,101642.14
2019-03-26T17:19:46.269Z,101643.45
2019-03-26T17:22:15.459Z,101643.13
2019-03-26T17:24:44.782Z,101645.77
2019-03-26T17:27:13.985Z,101645.61
2019-03-26T17:29:43.482Z,101645.12
2019-03-26T17:32:12.793Z,101649.09
2019-03-26T17:34:42.001Z,101646.10
2019-03-26T17:37:11.507Z,101655.55
2019-03-26T17:39:40.737Z,101656.87
2019-03-26T17:42:17.230Z,101659.70
2019-03-26T17:44:43.711Z,101656.57
2019-03-26T17:47:12.961Z,101656.57
2019-03-26T17:49:42.171Z,101653.13
2019-03-26T17:52:11.723Z,101661.39
2019-03-26T17:54:41.272Z,101655.61
2019-03-26T17:57:12.644Z,101654.11
2019-03-26T17:59:41.902Z,101657.74
2019-03-26T18:02:11.146Z,101668.32
2019-03-26T18:04:41.120Z,101667.67
2019-03-26T18:07:10.948Z,101667.51
2019-03-26T18:09:40.262Z,101671.81
2019-03-26T18:12:09.498Z,101677.09
2019-03-26T18:14:38.749Z,101676.59
2019-03-26T18:17:08.327Z,101681.23
2019-03-26T18:19:37.523Z,101688.48
2019-03-26T18:22:06.816Z,101687.52
2019-03-26T18:24:36.700Z,101693.95
2019-03-26T18:27:05.934Z,101692.28
2019-03-26T18:29:35.148Z,101696.59
2019-03-26T18:32:04.353Z,101696.92
2019-03-26T18:34:33.971Z,101689.98
2019-03-26T18:37:03.491Z,101697.57
2019-03-26T18:39:32.699Z,101707.67
2019-03-26T18:42:02.285Z,101714.59
2019-03-26T18:44:31.500Z,101713.94
2019-03-26T18:47:01.044Z,101714.92
2019-03-26T18:49:30.669Z,101715.27
2019-03-26T18:51:59.920Z,101713.61
2019-03-26T18:54:29.136Z,101715.73
2019-03-26T18:56:59.036Z,101717.56
2019-03-26T18:59:28.548Z,101718.24
2019-03-26T19:01:57.772Z,101711.94
2019-03-26T19:04:28.042Z,101717.73
2019-03-26T19:06:57.281Z,101721.87
2019-03-26T19:09:26.553Z,101711.94
2019-03-26T19:11:57.370Z,101709.30
2019-03-26T19:14:26.866Z,101716.91
2019-03-26T19:16:56.107Z,101718.37
2019-03-26T19:19:25.319Z,101732.91
2019-03-26T19:21:54.563Z,101727.16
2019-03-26T19:24:23.796Z,101724.84
2019-03-26T19:26:53.014Z,101725.66
2019-03-26T19:29:22.848Z,101733.59
2019-03-26T19:31:52.070Z,101740.03
2019-03-26T19:34:21.308Z,101749.46
2019-03-26T19:36:51.073Z,101750.95
2019-03-26T19:39:21.016Z,101754.75
2019-03-26T19:41:50.227Z,101766.98
2019-03-26T19:44:19.469Z,101763.83
2019-03-26T19:46:50.637Z,101753.42
2019-03-26T19:49:20.227Z,101760.68
2019-03-26T19:51:50.846Z,101755.09
2019-03-26T19:54:24.312Z,101765.15
2019-03-26T19:56:58.829Z,101755.56
2019-03-26T19:59:29.553Z,101761.36
2019-03-26T20:01:59.947Z,101764.81
2019-03-26T20:04:31.877Z,101761.52
2019-03-26T20:07:01.580Z,101766.13
2019-03-26T20:09:34.572Z,101772.26
2019-03-26T20:12:04.660Z,101770.77
2019-03-26T20:14:34.798Z,101771.11
2019-03-26T20:17:04.182Z,101778.70
2019-03-26T20:19:34.135Z,101775.24
2019-03-26T20:22:03.374Z,101782.16
2019-03-26T20:24:34.893Z,101779.86
2019-03-26T20:27:14.221Z,101788.29
2019-03-26T20:29:44.937Z,101789.61
2019-03-26T20:32:16.647Z,101790.91
2019-03-26T20:34:46.368Z,101795.53
2019-03-26T20:37:16.004Z,101796.37
2019-03-26T20:39:47.634Z,101796.68
2019-03-26T20:42:18.748Z,101801.97
2019-03-26T20:44:48.343Z,101808.73
2019-03-26T20:47:17.846Z,101808.91
2019-03-26T20:49:47.941Z,101807.93
2019-03-26T20:52:18.941Z,101818.52
2019-03-26T20:54:48.824Z,101818.98
2019-03-26T20:57:21.342Z,101818.33
2019-03-26T20:59:52.302Z,101818.97
2019-03-26T21:02:22.792Z,101822.28
2019-03-26T21:04:52.688Z,101818.84
2019-03-26T21:07:22.602Z,101816.19
2019-03-26T21:09:52.166Z,101820.47
2019-03-26T21:12:21.484Z,101805.94
2019-03-26T21:14:52.282Z,101821.48
2019-03-26T21:17:21.807Z,101820.16
2019-03-26T21:19:51.583Z,101821.32
2019-03-26T21:22:20.819Z,101823.27
2019-03-26T21:24:51.604Z,101837.81
2019-03-26T21:27:22.500Z,101824.13
2019-03-26T21:29:52.531Z,101829.70
2019-03-26T21:32:22.135Z,101826.41
2019-03-26T21:34:51.413Z,101826.06
2019-03-26T21:37:20.663Z,101833.98
2019-03-26T21:39:49.871Z,101831.66
2019-03-26T21:42:19.358Z,101832.00
2019-03-26T21:44:48.871Z,101832.29
2019-03-26T21:47:18.696Z,101830.63
2019-03-26T21:49:48.628Z,101828.16
2019-03-26T21:52:18.732Z,101825.35
2019-03-26T21:54:48.179Z,101827.98
2019-03-26T21:57:17.396Z,101830.42
2019-03-26T21:59:46.943Z,101829.11
2019-03-26T22:02:18.872Z,101825.29
2019-03-26T22:04:48.959Z,101823.63
2019-03-26T22:07:18.507Z,101824.11
2019-03-26T22:09:47.745Z,101826.94
2019-03-26T22:12:17.342Z,101817.16
2019-03-26T22:14:47.257Z,101819.80
2019-03-26T22:17:16.925Z,101819.59
2019-03-26T22:19:46.123Z,101829.31
2019-03-26T22:22:16.676Z,101825.66
2019-03-26T22:24:49.288Z,101832.89
2019-03-26T22:27:18.492Z,101837.83
2019-03-26T22:29:48.836Z,101849.34
2019-03-26T22:32:19.444Z,101844.83
2019-03-26T22:34:49.467Z,101845.38
2019-03-26T22:37:18.679Z,101846.86
2019-03-26T22:39:48.363Z,101855.65
2019-03-26T22:42:17.597Z,101850.39
2019-03-26T22:44:46.815Z,101847.41
2019-03-26T22:47:16.042Z,101848.91
2019-03-26T22:49:45.245Z,101851.92
2019-03-26T22:52:15.014Z,101848.75
2019-03-26T22:54:44.237Z,101856.34
2019-03-26T22:57:13.472Z,101853.08
2019-03-26T22:59:42.674Z,101851.76
2019-03-26T23:02:11.959Z,101850.25
2019-03-26T23:04:41.177Z,101854.52
2019-03-26T23:07:10.438Z,101848.55
2019-03-26T23:09:39.659Z,101853.38
2019-03-26T23:12:08.904Z,101851.53
2019-03-26T23:14:45.164Z,101853.03
2019-03-26T23:17:09.421Z,101849.26
2019-03-26T23:19:39.725Z,101846.09
2019-03-26T23:22:09.202Z,101852.32
2019-03-26T23:24:38.686Z,101847.33
2019-03-26T23:27:10.226Z,101851.45
2019-03-26T23:29:41.252Z,101858.73
2019-03-26T23:32:10.999Z,101855.75
2019-03-26T23:34:41.180Z,101858.39
2019-03-26T23:37:11.201Z,101860.84
2019-03-26T23:39:40.935Z,101856.56
2019-03-26T23:42:10.885Z,101858.29
2019-03-26T23:44:40.920Z,101858.94
2019-03-26T23:47:10.197Z,101855.98
2019-03-26T23:49:40.028Z,101855.52
2019-03-26T23:52:09.498Z,101856.83
2019-03-26T23:54:38.736Z,101854.52
2019-03-26T23:57:08.357Z,101857.67
2019-03-26T23:59:37.568Z,101860.84
